Time;durP1;ratioP1;P1;durP2;ratioP2;P2;SDS_P1;SDS_P2;PMS_P1;PMS_P2;Temp;Humidity;BMP_temperature;BMP_pressure;BME280_temperature;BME280_humidity;BME280_pressure;Samples;Min_cycle;Max_cycle;Signal;HPM_P1;HPM_P2
2023/02/21 02:15:26;;;;;;;11.10;3.60;;;;;;;9.60;100.00;97949.98;134630;1291;22555;-62
2023/02/21 02:18:29;;;;;;;10.90;3.40;;;;;;;9.67;100.00;97942.62;134641;1291;22544;-61
2023/02/21 02:21:31;;;;;;;11.40;3.50;;;;;;;9.73;100.00;97931.42;134649;1271;22641;-62
2023/02/21 02:24:33;;;;;;;12.90;3.70;;;;;;;9.63;100.00;97924.39;134616;1291;22563;-63
2023/02/21 02:27:36;;;;;;;12.80;3.60;;;;;;;9.35;100.00;97926.73;134652;1291;24287;-60
2023/02/21 02:30:38;;;;;;;14.80;3.90;;;;;;;9.28;100.00;97925.67;134653;1291;22559;-65
2023/02/21 02:33:41;;;;;;;16.40;3.90;;;;;;;9.39;100.00;97915.16;134639;1291;22570;-60
2023/02/21 02:36:43;;;;;;;17.60;4.40;;;;;;;9.51;100.00;97911.69;134602;1291;22560;-61
2023/02/21 02:39:45;;;;;;;13.80;3.70;;;;;;;9.62;100.00;97907.70;134652;1291;22559;-60
2023/02/21 02:42:48;;;;;;;13.20;3.90;;;;;;;9.66;100.00;97912.83;134651;1291;22559;-62
2023/02/21 02:45:50;;;;;;;14.60;4.40;;;;;;;9.71;100.00;97897.15;134633;1291;22542;-61
2023/02/21 02:48:53;;;;;;;17.40;4.80;;;;;;;9.61;100.00;97890.84;134631;1291;23971;-60
2023/02/21 02:51:55;;;;;;;10.90;3.30;;;;;;;9.57;100.00;97896.58;134621;1291;23875;-61
2023/02/21 02:54:58;;;;;;;12.80;4.00;;;;;;;9.36;100.00;97916.88;134618;1291;22545;-61
2023/02/21 02:58:00;;;;;;;12.50;3.60;;;;;;;9.42;100.00;97902.89;134635;1291;22539;-62
2023/02/21 03:01:03;;;;;;;10.50;3.10;;;;;;;9.37;100.00;97909.87;134628;1273;22548;-60
2023/02/21 03:04:05;;;;;;;12.70;3.70;;;;;;;9.36;100.00;97909.77;134614;1291;22549;-60
2023/02/21 03:07:07;;;;;;;18.10;4.10;;;;;;;9.26;100.00;97899.30;134586;1291;22542;-61
2023/02/21 03:10:10;;;;;;;13.80;3.90;;;;;;;9.38;100.00;97907.02;135175;1274;22718;-60
2023/02/21 03:13:12;;;;;;;14.20;4.20;;;;;;;9.38;100.00;97900.34;135134;1282;24359;-61
2023/02/21 03:16:15;;;;;;;10.50;3.20;;;;;;;9.33;100.00;97908.02;135142;1282;22529;-62
2023/02/21 03:19:17;;;;;;;;;;;;;;;9.41;100.00;97898.04;135187;1282;24224;-60
2023/02/21 03:22:19;;;;;;;15.50;4.10;;;;;;;9.57;100.00;97895.88;135191;1282;22535;-60
2023/02/21 03:25:22;;;;;;;9.20;3.50;;;;;;;9.51;100.00;97904.17;135168;1282;22644;-61
2023/02/21 03:28:24;;;;;;;13.00;3.70;;;;;;;9.74;100.00;97899.73;135149;1282;22532;-60
2023/02/21 03:31:27;;;;;;;15.00;4.00;;;;;;;9.65;100.00;97906.11;135191;1282;22550;-60
2023/02/21 03:34:29;;;;;;;8.70;3.10;;;;;;;9.60;100.00;97903.52;135144;1265;22548;-60
2023/02/21 03:37:31;;;;;;;13.00;3.80;;;;;;;9.71;100.00;97912.33;135150;1282;22542;-61
2023/02/21 03:40:34;;;;;;;12.60;3.70;;;;;;;9.80;100.00;97912.55;135174;1283;22553;-60
2023/02/21 03:43:36;;;;;;;11.40;3.60;;;;;;;9.94;100.00;97913.66;135161;1282;22551;-60
2023/02/21 03:46:38;;;;;;;11.00;3.40;;;;;;;10.05;100.00;97918.75;135166;1282;22558;-61
2023/02/21 03:49:41;;;;;;;11.90;3.60;;;;;;;9.88;100.00;97906.39;135165;1283;22553;-63
2023/02/21 03:52:43;;;;;;;11.90;3.00;;;;;;;9.74;100.00;97914.73;135141;1283;22540;-60
2023/02/21 03:55:46;;;;;;;13.60;3.70;;;;;;;9.79;100.00;97916.15;135168;1283;23289;-63
2023/02/21 03:58:48;;;;;;;13.40;3.50;;;;;;;9.74;100.00;97915.64;135124;1282;25355;-61
2023/02/21 04:01:50;;;;;;;11.60;3.70;;;;;;;9.75;100.00;97927.41;135137;1282;22559;-61
2023/02/21 04:04:53;;;;;;;12.50;3.50;;;;;;;9.75;100.00;97919.71;135154;1282;22531;-62
2023/02/21 04:07:55;;;;;;;12.70;3.80;;;;;;;9.76;100.00;97914.61;135148;1282;25238;-60
2023/02/21 04:10:58;;;;;;;14.60;4.10;;;;;;;9.70;100.00;97902.98;135139;1282;22539;-64
2023/02/21 04:14:00;;;;;;;15.30;4.10;;;;;;;9.76;100.00;97906.58;135149;1282;22536;-64
2023/02/21 04:17:02;;;;;;;14.50;4.00;;;;;;;9.66;100.00;97910.04;135169;1282;26523;-60
2023/02/21 04:20:05;;;;;;;15.80;3.90;;;;;;;9.80;100.00;97912.76;135130;1283;22535;-64
2023/02/21 04:23:07;;;;;;;12.50;3.70;;;;;;;9.66;100.00;97908.83;135146;1282;22543;-63
2023/02/21 04:26:09;;;;;;;11.80;3.50;;;;;;;9.73;100.00;97911.00;135115;1282;25243;-60
2023/02/21 04:29:12;;;;;;;13.80;4.40;;;;;;;9.66;100.00;97910.59;135092;1282;22561;-62
2023/02/21 04:32:14;;;;;;;14.10;3.90;;;;;;;9.57;100.00;97912.30;135175;1265;22532;-62
2023/02/21 04:35:16;;;;;;;14.90;4.50;;;;;;;9.55;100.00;97917.52;135154;1283;24208;-61
2023/02/21 04:38:19;;;;;;;14.00;4.00;;;;;;;9.36;100.00;97910.07;135158;1282;22617;-64
2023/02/21 04:41:21;;;;;;;12.50;3.80;;;;;;;9.29;100.00;97912.84;135159;1282;22542;-61
2023/02/21 04:44:24;;;;;;;10.70;3.40;;;;;;;9.41;100.00;97909.08;135143;1283;22549;-59
2023/02/21 04:47:26;;;;;;;14.50;4.30;;;;;;;9.48;100.00;97914.98;135156;1282;22549;-61
2023/02/21 04:50:28;;;;;;;13.40;3.40;;;;;;;9.55;100.00;97899.52;135152;1265;22672;-62
2023/02/21 04:53:31;;;;;;;14.80;4.20;;;;;;;9.72;100.00;97904.05;135121;1283;22547;-62
2023/02/21 04:56:33;;;;;;;14.70;4.30;;;;;;;9.60;100.00;97893.77;135093;1283;22542;-60
2023/02/21 04:59:36;;;;;;;12.80;3.60;;;;;;;9.64;100.00;97905.17;135103;1282;25418;-60
2023/02/21 05:02:38;;;;;;;14.90;4.10;;;;;;;9.55;100.00;97897.38;135126;1266;22542;-59
2023/02/21 05:05:41;;;;;;;17.70;4.20;;;;;;;9.37;100.00;97896.58;135123;1282;22579;-59
2023/02/21 05:08:43;;;;;;;11.60;3.90;;;;;;;9.47;100.00;97890.64;135176;1282;22559;-60
2023/02/21 05:11:46;;;;;;;12.50;4.10;;;;;;;9.49;100.00;97899.42;135169;1282;25473;-60
2023/02/21 05:14:48;;;;;;;11.00;3.20;;;;;;;9.62;100.00;97882.77;135158;1283;22535;-62
2023/02/21 05:17:50;;;;;;;15.10;3.80;;;;;;;9.67;100.00;97893.39;135150;1283;22566;-60
2023/02/21 05:20:53;;;;;;;11.60;3.70;;;;;;;9.63;100.00;97884.08;135145;1282;22553;-60
2023/02/21 05:23:55;;;;;;;14.00;3.60;;;;;;;9.67;100.00;97892.21;135181;1282;22547;-62
2023/02/21 05:26:58;;;;;;;13.50;3.90;;;;;;;9.74;100.00;97892.00;135147;1282;22546;-62
2023/02/21 05:30:00;;;;;;;11.60;3.50;;;;;;;9.85;100.00;97887.61;135199;1282;22535;-65
2023/02/21 05:33:02;;;;;;;11.10;3.70;;;;;;;9.82;100.00;97891.27;135194;1282;22539;-62
2023/02/21 05:36:05;;;;;;;10.60;3.20;;;;;;;9.80;100.00;97911.90;135144;1265;22655;-61
2023/02/21 05:39:07;;;;;;;12.20;3.50;;;;;;;9.79;100.00;97907.96;135148;1283;22642;-60
2023/02/21 05:42:09;;;;;;;11.20;3.60;;;;;;;9.80;100.00;97908.77;135166;1282;24388;-61
2023/02/21 05:45:12;;;;;;;9.20;2.70;;;;;;;9.67;100.00;97903.87;135150;1265;22547;-61
2023/02/21 05:48:14;;;;;;;9.30;3.20;;;;;;;9.45;100.00;97904.62;135126;1282;22541;-61
2023/02/21 05:51:16;;;;;;;12.10;3.50;;;;;;;9.70;100.00;97901.59;135145;1281;22515;-61
2023/02/21 05:54:19;;;;;;;8.50;3.10;;;;;;;9.74;100.00;97919.80;135174;1282;22558;-62
2023/02/21 05:57:21;;;;;;;8.70;3.20;;;;;;;9.64;100.00;97914.73;135158;1282;22674;-61
2023/02/21 06:00:24;;;;;;;9.90;2.90;;;;;;;9.71;100.00;97910.59;135142;1282;22548;-61
2023/02/21 06:03:26;;;;;;;9.90;2.80;;;;;;;9.79;100.00;97920.83;135161;1283;22542;-60
2023/02/21 06:06:28;;;;;;;7.20;2.90;;;;;;;9.82;100.00;97906.48;135190;1282;22539;-61
2023/02/21 06:09:31;;;;;;;8.70;3.00;;;;;;;9.57;100.00;97914.05;135172;1282;22546;-60
2023/02/21 06:12:33;;;;;;;8.30;3.00;;;;;;;9.65;100.00;97910.31;135166;1283;22539;-60
2023/02/21 06:15:35;;;;;;;8.80;2.80;;;;;;;9.74;100.00;97916.84;135156;1282;25409;-60
2023/02/21 06:18:38;;;;;;;10.80;3.10;;;;;;;9.97;100.00;97902.97;135174;1282;22539;-61
2023/02/21 06:21:40;;;;;;;11.50;3.50;;;;;;;9.99;100.00;97922.55;135182;1282;22551;-61
2023/02/21 06:24:43;;;;;;;;;;;;;;;9.98;100.00;97925.94;135192;1282;22555;-61
2023/02/21 06:27:45;;;;;;;6.90;2.40;;;;;;;10.15;100.00;97929.45;135198;1265;22540;-61
2023/02/21 06:30:48;;;;;;;6.70;2.60;;;;;;;10.07;100.00;97948.52;135156;1282;22716;-61
2023/02/21 06:33:50;;;;;;;6.90;2.40;;;;;;;10.02;100.00;97942.06;135160;1282;24398;-61
2023/02/21 06:36:52;;;;;;;7.40;2.50;;;;;;;9.98;100.00;97943.56;135152;1282;22546;-62
2023/02/21 06:39:55;;;;;;;7.10;2.70;;;;;;;10.03;100.00;97967.33;135179;1282;22599;-61
2023/02/21 06:42:57;;;;;;;6.50;2.40;;;;;;;10.10;100.00;97945.36;135124;1282;22534;-61
2023/02/21 06:45:59;;;;;;;9.20;2.70;;;;;;;9.98;100.00;97948.49;135197;1282;22568;-62
2023/02/21 06:49:02;;;;;;;7.00;2.60;;;;;;;10.11;100.00;97951.92;135186;1283;22553;-62
2023/02/21 06:52:04;;;;;;;7.70;2.50;;;;;;;10.29;100.00;97947.41;135201;1282;22542;-62
2023/02/21 06:55:07;;;;;;;9.60;2.80;;;;;;;10.41;100.00;97950.05;135615;1280;23916;-59
2023/02/21 06:58:09;;;;;;;10.20;3.00;;;;;;;10.39;100.00;97961.23;135576;1280;22561;-62
2023/02/21 07:01:12;;;;;;;9.50;2.70;;;;;;;10.53;100.00;97964.21;135605;1280;22569;-60
2023/02/21 07:04:15;;;;;;;5.70;2.30;;;;;;;10.42;100.00;97970.64;135534;1280;22529;-59
2023/02/21 07:07:18;;;;;;;7.90;2.50;;;;;;;10.42;100.00;97968.73;135610;1280;22547;-61
2023/02/21 07:10:20;;;;;;;;;;;;;;;10.26;100.00;97981.20;135619;1280;22530;-61
2023/02/21 07:13:23;;;;;;;6.70;2.10;;;;;;;10.34;100.00;97995.86;135580;1280;22612;-61
2023/02/21 07:16:25;;;;;;;4.50;2.00;;;;;;;10.28;100.00;97992.63;135603;1280;22534;-62
2023/02/21 07:19:28;;;;;;;5.80;1.60;;;;;;;10.29;100.00;98007.56;135587;1280;22504;-60
2023/02/21 07:22:30;;;;;;;3.60;1.60;;;;;;;10.21;100.00;98025.10;135571;1280;25410;-60
2023/02/21 07:25:32;;;;;;;2.50;1.10;;;;;;;9.98;100.00;98030.20;135597;1280;22543;-62
2023/02/21 07:28:35;;;;;;;3.60;1.40;;;;;;;9.88;100.00;98031.09;135619;1280;22561;-60
2023/02/21 07:31:37;;;;;;;4.40;1.50;;;;;;;10.18;100.00;98015.16;135596;1280;22611;-61
2023/02/21 07:34:39;;;;;;;4.40;1.10;;;;;;;10.29;100.00;98027.67;135578;1280;22539;-61
2023/02/21 07:56:27;;;;;;;5.00;1.70;;;;;;;9.23;100.00;98039.55;131724;1311;558180;-63
2023/02/21 07:59:31;;;;;;;;;;;;;;;9.55;100.00;98026.38;130553;1292;5317133;-64
2023/02/21 08:02:33;;;;;;;4.80;1.60;;;;;;;9.61;100.00;98021.67;134570;1292;22556;-65
2023/02/21 08:05:36;;;;;;;5.00;1.50;;;;;;;9.62;100.00;98025.55;134591;1292;22541;-66
2023/02/21 08:08:39;;;;;;;4.00;1.60;;;;;;;9.63;100.00;98031.23;135384;1281;22568;-62
2023/02/21 08:11:41;;;;;;;;;;;;;;;9.70;100.00;98037.73;135334;1261;22689;-65
2023/02/21 08:14:44;;;;;;;4.60;1.90;;;;;;;9.70;100.00;98042.44;135320;1281;22552;-65
2023/02/21 08:17:46;;;;;;;7.30;2.30;;;;;;;9.73;100.00;98051.34;135348;1280;22570;-63
2023/02/21 08:20:49;;;;;;;7.50;2.10;;;;;;;9.85;100.00;98061.31;135358;1281;22545;-61
2023/02/21 08:23:51;;;;;;;;;;;;;;;9.80;100.00;98078.98;135411;1281;22517;-61
2023/02/21 08:26:53;;;;;;;6.30;2.30;;;;;;;9.64;100.00;98090.16;135393;1281;22535;-62
2023/02/21 08:29:56;;;;;;;6.90;2.20;;;;;;;9.55;100.00;98086.39;135374;1280;25380;-61
2023/02/21 08:32:58;;;;;;;;;;;;;;;9.54;100.00;98094.17;135392;1281;22524;-65
2023/02/21 08:36:01;;;;;;;7.80;2.20;;;;;;;9.63;100.00;98129.14;135368;1281;22539;-65
2023/02/21 08:39:03;;;;;;;9.00;2.20;;;;;;;9.90;100.00;98133.29;135363;1281;25265;-63
2023/02/21 08:42:06;;;;;;;4.70;1.60;;;;;;;10.34;100.00;98126.21;135368;1281;22554;-64
2023/02/21 08:45:09;;;;;;;6.30;2.30;;;;;;;10.39;100.00;98125.02;135329;1281;22608;-63
2023/02/21 08:48:12;;;;;;;4.30;1.60;;;;;;;10.60;100.00;98103.58;135348;1280;22536;-63
2023/02/21 08:51:14;;;;;;;8.20;2.10;;;;;;;10.80;100.00;98097.04;135369;1281;22550;-63
2023/02/21 08:54:18;;;;;;;;;;;;;;;10.85;100.00;98126.08;135379;1281;22640;-63
2023/02/21 08:57:20;;;;;;;4.50;1.60;;;;;;;11.00;100.00;98105.52;135356;1281;22550;-63
2023/02/21 09:00:23;;;;;;;;;;;;;;;11.21;100.00;98111.70;135370;1281;24376;-63
2023/02/21 09:03:25;;;;;;;7.50;1.80;;;;;;;11.41;100.00;98116.86;135368;1281;22565;-63
2023/02/21 09:06:28;;;;;;;7.20;1.80;;;;;;;11.71;100.00;98122.65;135401;1281;22536;-62
2023/02/21 09:09:30;;;;;;;3.50;1.40;;;;;;;11.85;100.00;98104.59;135353;1281;22542;-62
2023/02/21 09:12:33;;;;;;;7.30;2.00;;;;;;;11.94;100.00;98140.00;135330;1281;22550;-62
2023/02/21 09:15:35;;;;;;;4.00;1.80;;;;;;;11.90;100.00;98105.73;135333;1281;22539;-63
2023/02/21 09:18:38;;;;;;;5.20;1.70;;;;;;;12.13;100.00;98109.48;135359;1281;22553;-64
2023/02/21 09:21:44;;;;;;;;;;;;;;;11.94;100.00;98115.98;135363;1281;22536;-62
2023/02/21 09:24:46;;;;;;;6.40;1.60;;;;;;;12.24;100.00;98128.02;135334;1277;27203;-62
2023/02/21 09:27:49;;;;;;;;;;;;;;;12.13;100.00;98137.68;135359;1281;22519;-64
2023/02/21 09:30:51;;;;;;;7.00;2.20;;;;;;;12.23;100.00;98134.58;135338;1281;23943;-63
2023/02/21 09:33:54;;;;;;;6.60;2.00;;;;;;;11.92;100.00;98147.88;135340;1281;22562;-62
2023/02/21 09:36:58;;;;;;;3.60;1.30;;;;;;;11.62;100.00;98150.77;135382;1281;22548;-61
2023/02/21 09:40:00;;;;;;;7.80;1.80;;;;;;;11.32;100.00;98171.22;135338;1281;22543;-63
2023/02/21 09:43:03;;;;;;;;;;;;;;;11.02;100.00;98173.43;135338;1281;22559;-63
2023/02/21 09:46:05;;;;;;;5.80;1.40;;;;;;;10.99;100.00;98178.06;135348;1281;22536;-62
2023/02/21 09:49:08;;;;;;;5.00;1.30;;;;;;;11.03;100.00;98165.16;135347;1281;22532;-64
2023/02/21 09:52:10;;;;;;;5.90;1.10;;;;;;;11.05;100.00;98147.50;135323;1281;22546;-63
2023/02/21 09:55:12;;;;;;;7.90;1.80;;;;;;;11.47;100.00;98166.08;135350;1281;22556;-66
2023/02/21 09:58:15;;;;;;;3.90;1.10;;;;;;;11.51;100.00;98186.63;135333;1281;22529;-63
2023/02/21 10:01:17;;;;;;;6.00;1.30;;;;;;;11.39;100.00;98200.83;135325;1281;24255;-63
2023/02/21 10:04:20;;;;;;;7.20;1.70;;;;;;;11.64;100.00;98187.98;135308;1262;22557;-61
2023/02/21 10:07:23;;;;;;;6.50;1.20;;;;;;;11.82;100.00;98174.85;135334;1274;22529;-62
2023/02/21 10:10:25;;;;;;;10.90;1.80;;;;;;;12.07;100.00;98186.61;135402;1281;22561;-63
2023/02/21 10:13:27;;;;;;;;;;;;;;;12.26;100.00;98177.30;135387;1281;22520;-65
2023/02/21 10:16:30;;;;;;;11.10;2.00;;;;;;;12.20;100.00;98199.31;135353;1281;22565;-65
2023/02/21 10:19:32;;;;;;;8.50;1.80;;;;;;;12.01;100.00;98218.16;135340;1262;22563;-64
2023/02/21 10:22:35;;;;;;;9.10;2.00;;;;;;;12.08;100.00;98182.73;135362;1281;22563;-63
2023/02/21 10:25:37;;;;;;;11.30;1.60;;;;;;;12.24;100.00;98178.13;135387;1281;22552;-64
2023/02/21 10:28:39;;;;;;;6.60;1.80;;;;;;;11.98;100.00;98192.23;135346;1281;24243;-66
2023/02/21 10:31:42;;;;;;;8.00;2.10;;;;;;;12.00;100.00;98204.57;135352;1281;22562;-66
2023/02/21 10:34:44;;;;;;;14.20;2.30;;;;;;;12.12;100.00;98200.65;135372;1262;22574;-63
2023/02/21 10:37:47;;;;;;;10.60;2.10;;;;;;;12.23;100.00;98205.55;135396;1281;22728;-67
2023/02/21 10:40:49;;;;;;;10.50;1.90;;;;;;;12.46;100.00;98197.16;135362;1281;24363;-62
2023/02/21 10:43:52;;;;;;;8.40;1.90;;;;;;;12.18;100.00;98193.34;135339;1281;22532;-62
2023/02/21 10:46:54;;;;;;;;;;;;;;;12.11;100.00;98203.69;135371;1281;22538;-62
2023/02/21 10:49:56;;;;;;;11.90;2.10;;;;;;;12.44;100.00;98191.52;135384;1281;22553;-64
2023/02/21 10:52:59;;;;;;;11.00;2.40;;;;;;;12.36;100.00;98192.31;135395;1281;23922;-63
2023/02/21 10:56:01;;;;;;;15.40;2.10;;;;;;;12.32;100.00;98198.90;135337;1281;22531;-62
2023/02/21 10:59:05;;;;;;;;;;;;;;;12.39;100.00;98184.21;135352;1281;22517;-62
2023/02/21 11:02:07;;;;;;;10.20;1.90;;;;;;;12.45;100.00;98216.47;135349;1281;22571;-65
2023/02/21 11:05:10;;;;;;;;;;;;;;;12.45;100.00;98205.23;135337;1281;22567;-65
2023/02/21 11:08:12;;;;;;;12.50;2.10;;;;;;;12.64;100.00;98206.28;135392;1264;22551;-63
2023/02/21 11:11:15;;;;;;;11.10;1.80;;;;;;;12.81;100.00;98219.30;135353;1262;22655;-63
2023/02/21 11:14:17;;;;;;;15.60;2.60;;;;;;;12.54;100.00;98227.87;135369;1281;22569;-63
2023/02/21 11:17:19;;;;;;;12.90;2.30;;;;;;;12.66;100.00;98209.63;135355;1281;22535;-61
2023/02/21 11:20:23;;;;;;;16.70;2.80;;;;;;;12.81;100.00;98219.45;135347;1281;24768;-63
2023/02/21 11:23:25;;;;;;;14.30;2.10;;;;;;;12.87;100.00;98213.16;135349;1281;22535;-63
2023/02/21 11:26:29;;;;;;;18.10;2.50;;;;;;;12.78;100.00;98220.36;135326;1281;22716;-63
2023/02/21 11:29:31;;;;;;;14.20;2.20;;;;;;;12.93;100.00;98209.18;135370;1281;22573;-63
2023/02/21 11:32:34;;;;;;;14.50;2.40;;;;;;;13.15;100.00;98223.38;135341;1281;22589;-63
2023/02/21 11:35:36;;;;;;;14.10;2.50;;;;;;;12.91;100.00;98222.70;135379;1281;22616;-65
2023/02/21 11:38:39;;;;;;;15.20;2.50;;;;;;;12.85;100.00;98236.67;135392;1262;22543;-63
2023/02/21 11:41:42;;;;;;;15.00;2.40;;;;;;;12.62;100.00;98233.42;135363;1262;22546;-63
2023/02/21 11:44:44;;;;;;;12.80;2.40;;;;;;;12.33;100.00;98262.32;135340;1257;24197;-65
2023/02/21 11:47:47;;;;;;;;;;;;;;;12.12;100.00;98236.06;135407;1281;22677;-64
2023/02/21 11:50:49;;;;;;;12.70;2.60;;;;;;;12.00;100.00;98226.96;135369;1281;22545;-64
2023/02/21 11:53:51;;;;;;;13.50;2.40;;;;;;;11.97;100.00;98238.60;135378;1281;22549;-66
2023/02/21 11:56:54;;;;;;;14.60;2.50;;;;;;;11.83;100.00;98272.55;135386;1281;22542;-65
2023/02/21 11:59:57;;;;;;;10.60;2.10;;;;;;;12.05;100.00;98253.34;135360;1281;25304;-62
2023/02/21 12:03:00;;;;;;;15.70;2.70;;;;;;;12.48;100.00;98243.31;135362;1262;22587;-67
2023/02/21 12:06:02;;;;;;;15.90;2.90;;;;;;;12.66;100.00;98246.63;135363;1281;25375;-63
2023/02/21 12:09:05;;;;;;;;;;;;;;;12.78;100.00;98231.63;135350;1281;22716;-62
2023/02/21 12:12:07;;;;;;;14.80;2.70;;;;;;;12.76;100.00;98238.96;135383;1281;24251;-65
2023/02/21 12:15:09;;;;;;;12.40;2.40;;;;;;;12.87;100.00;98239.01;135361;1281;22550;-64
2023/02/21 12:18:12;;;;;;;15.40;2.90;;;;;;;12.92;100.00;98256.67;135318;1281;22553;-63
2023/02/21 12:21:14;;;;;;;11.40;2.00;;;;;;;12.52;100.00;98225.58;135336;1281;22535;-64
2023/02/21 12:24:17;;;;;;;;;;;;;;;12.74;100.00;98232.47;135389;1281;22529;-62
2023/02/21 12:27:19;;;;;;;15.00;2.60;;;;;;;12.67;100.00;98273.85;135340;1281;22536;-63
2023/02/21 12:30:25;;;;;;;15.20;2.50;;;;;;;12.77;100.00;98239.57;135317;1281;24283;-63
2023/02/21 12:33:28;;;;;;;16.50;2.70;;;;;;;12.85;100.00;98231.92;135400;1281;22571;-64
2023/02/21 12:36:30;;;;;;;;;;;;;;;13.04;100.00;98236.60;135339;1281;22629;-65
2023/02/21 12:39:32;;;;;;;15.30;2.80;;;;;;;12.92;100.00;98258.97;135317;1281;23905;-63
2023/02/21 12:42:35;;;;;;;15.10;2.40;;;;;;;12.82;100.00;98251.32;135344;1281;24387;-62
2023/02/21 12:45:38;;;;;;;13.40;2.50;;;;;;;12.75;100.00;98249.80;135361;1281;22551;-64
2023/02/21 12:48:40;;;;;;;11.60;2.50;;;;;;;12.93;100.00;98239.59;135343;1281;23921;-63
2023/02/21 12:51:43;;;;;;;16.10;2.60;;;;;;;13.20;100.00;98256.86;135292;1262;22546;-62
2023/02/21 12:54:45;;;;;;;16.20;2.70;;;;;;;13.20;100.00;98252.11;135341;1281;22555;-64
2023/02/21 12:57:48;;;;;;;;;;;;;;;13.11;100.00;98251.14;135359;1281;25394;-63
2023/02/21 13:00:50;;;;;;;16.10;2.60;;;;;;;13.21;100.00;98246.47;135344;1281;22529;-63
2023/02/21 13:03:53;;;;;;;17.10;3.00;;;;;;;13.56;100.00;98232.94;135338;1281;22537;-63
2023/02/21 13:06:56;;;;;;;19.10;2.80;;;;;;;13.45;100.00;98249.25;135325;1281;22646;-63
2023/02/21 13:09:58;;;;;;;13.60;2.80;;;;;;;13.22;100.00;98246.52;135358;1281;22532;-64
2023/02/21 13:13:01;;;;;;;16.60;2.90;;;;;;;12.93;100.00;98262.23;135293;1281;22568;-66
2023/02/21 13:16:03;;;;;;;17.30;2.70;;;;;;;13.13;100.00;98248.48;135302;1281;22541;-63
2023/02/21 13:19:06;;;;;;;16.50;2.50;;;;;;;12.86;100.00;98258.66;135308;1281;22582;-63
2023/02/21 13:25:28;;;;;;;13.70;2.90;;;;;;;12.70;100.00;98251.92;135355;1281;22539;-65
2023/02/21 13:28:35;;;;;;;;;;;;;;;12.59;100.00;98275.73;135318;1281;22651;-65
2023/02/21 13:35:16;;;;;;;17.30;3.10;;;;;;;13.24;100.00;98253.55;135310;1281;22535;-62
2023/02/21 13:38:18;;;;;;;11.40;2.60;;;;;;;12.60;100.00;98269.31;135348;1281;22625;-62
2023/02/21 13:41:20;;;;;;;17.30;2.70;;;;;;;12.37;100.00;98271.96;135337;1281;22564;-62
2023/02/21 13:44:23;;;;;;;15.90;2.40;;;;;;;12.42;100.00;98260.73;135348;1281;23451;-62
2023/02/21 13:47:25;;;;;;;;;;;;;;;12.67;100.00;98265.13;135263;1281;22570;-61
2023/02/21 13:50:28;;;;;;;19.30;3.30;;;;;;;12.81;100.00;98284.54;135292;1281;22675;-61
2023/02/21 13:53:32;;;;;;;19.30;3.00;;;;;;;12.93;100.00;98266.97;135270;1281;22561;-62
2023/02/21 13:56:35;;;;;;;16.60;3.20;;;;;;;13.09;100.00;98271.63;135305;1281;22621;-64
2023/02/21 13:59:37;;;;;;;;;;;;;;;13.41;100.00;98269.94;135323;1281;22521;-62
2023/02/21 14:02:40;;;;;;;19.00;3.30;;;;;;;13.12;100.00;98274.55;135370;1281;22550;-62
2023/02/21 14:05:42;;;;;;;13.30;2.80;;;;;;;12.88;100.00;98277.89;135331;1262;22542;-63
2023/02/21 14:08:46;;;;;;;16.30;2.50;;;;;;;12.58;100.00;98279.66;135304;1281;22584;-62
2023/02/21 14:11:49;;;;;;;18.50;3.00;;;;;;;12.44;100.00;98277.04;135337;1281;25420;-62
2023/02/21 14:14:51;;;;;;;17.00;2.80;;;;;;;12.28;100.00;98295.34;135311;1281;22584;-66
2023/02/21 14:17:53;;;;;;;16.80;2.90;;;;;;;12.13;100.00;98286.96;135287;1281;22559;-65
2023/02/21 14:20:56;;;;;;;21.40;3.10;;;;;;;12.06;100.00;98294.81;135310;1281;22670;-64
2023/02/21 14:23:58;;;;;;;16.00;3.10;;;;;;;11.91;100.00;98293.15;135335;1281;22539;-64
2023/02/21 14:27:01;;;;;;;;;;;;;;;12.09;100.00;98287.27;135320;1281;22665;-66
2023/02/21 14:30:03;;;;;;;14.10;2.90;;;;;;;11.80;100.00;98318.29;135359;1281;22541;-64
2023/02/21 14:33:06;;;;;;;20.20;3.20;;;;;;;11.83;100.00;98299.55;135323;1281;22627;-64
2023/02/21 14:36:08;;;;;;;13.70;2.60;;;;;;;11.77;100.00;98299.98;135338;1281;22561;-64
2023/02/21 14:39:11;;;;;;;18.90;3.30;;;;;;;11.83;100.00;98311.45;135290;1281;22544;-64
2023/02/21 14:42:13;;;;;;;17.00;2.90;;;;;;;11.92;100.00;98305.16;135325;1262;22543;-63
2023/02/21 14:45:15;;;;;;;21.00;3.30;;;;;;;11.97;100.00;98305.83;135339;1281;25411;-63
2023/02/21 14:48:18;;;;;;;21.70;3.70;;;;;;;11.95;100.00;98311.78;135306;1281;25501;-63
2023/02/21 14:51:20;;;;;;;17.40;3.80;;;;;;;12.03;100.00;98317.88;135336;1281;22689;-63
2023/02/21 14:54:23;;;;;;;20.30;3.30;;;;;;;12.05;100.00;98342.80;135324;1281;22567;-63
2023/02/21 14:57:25;;;;;;;;;;;;;;;11.76;100.00;98342.76;135325;1281;22554;-62
2023/02/21 15:00:28;;;;;;;19.10;3.30;;;;;;;11.65;100.00;98329.71;135287;1281;24195;-63
2023/02/21 15:03:32;;;;;;;21.30;3.60;;;;;;;11.47;100.00;98336.62;135340;1281;24269;-65
2023/02/21 15:06:35;;;;;;;22.00;3.20;;;;;;;11.28;100.00;98336.05;135355;1281;22529;-63
2023/02/21 15:09:37;;;;;;;19.60;3.30;;;;;;;11.34;100.00;98339.13;135292;1281;22562;-64
2023/02/21 15:12:40;;;;;;;18.30;3.00;;;;;;;11.26;100.00;98343.89;135346;1281;22545;-62
2023/02/21 15:15:42;;;;;;;21.00;3.80;;;;;;;11.12;100.00;98353.48;135324;1281;22542;-64
2023/02/21 15:18:45;;;;;;;21.80;4.60;;;;;;;10.86;100.00;98381.66;135286;1281;23934;-63
2023/02/21 15:21:47;;;;;;;20.20;3.80;;;;;;;10.85;100.00;98372.89;135290;1281;24237;-63
2023/02/21 15:24:50;;;;;;;14.40;3.00;;;;;;;10.75;100.00;98368.82;135314;1262;22558;-63
2023/02/21 15:27:54;;;;;;;17.00;3.20;;;;;;;10.58;100.00;98375.90;135337;1281;22551;-64
2023/02/21 15:30:56;;;;;;;19.30;3.80;;;;;;;10.51;100.00;98379.52;135297;1265;22496;-63
2023/02/21 15:33:59;;;;;;;23.60;3.80;;;;;;;10.52;100.00;98372.13;135342;1281;25423;-64
2023/02/21 15:37:01;;;;;;;19.90;3.90;;;;;;;10.34;100.00;98376.44;135308;1281;22533;-63
2023/02/21 15:40:10;;;;;;;20.00;3.90;;;;;;;10.41;100.00;98384.41;135263;1281;22570;-62
2023/02/21 15:43:13;;;;;;;20.70;4.00;;;;;;;10.43;100.00;98394.42;135291;1262;22538;-64
2023/02/21 15:46:15;;;;;;;25.50;4.10;;;;;;;10.42;100.00;98390.06;135310;1281;22579;-63
2023/02/21 15:49:18;;;;;;;23.10;4.10;;;;;;;10.34;100.00;98391.70;135316;1281;22627;-63
2023/02/21 15:52:20;;;;;;;24.20;3.80;;;;;;;10.32;100.00;98409.43;135294;1281;24198;-63
2023/02/21 15:55:22;;;;;;;21.20;3.90;;;;;;;10.25;100.00;98397.86;135321;1281;22562;-63
2023/02/21 15:58:25;;;;;;;23.60;3.90;;;;;;;10.04;100.00;98403.61;135318;1281;22532;-62
2023/02/21 16:01:28;;;;;;;25.60;4.20;;;;;;;9.93;100.00;98414.07;135315;1281;24738;-63
2023/02/21 16:04:30;;;;;;;21.20;3.70;;;;;;;9.94;100.00;98415.73;135279;1281;22528;-65
2023/02/21 16:07:33;;;;;;;21.30;4.00;;;;;;;9.90;100.00;98408.88;135295;1281;22547;-62
2023/02/21 16:10:36;;;;;;;21.00;3.60;;;;;;;9.84;100.00;98413.09;135248;1281;23019;-64
2023/02/21 16:13:39;;;;;;;19.90;3.40;;;;;;;9.81;100.00;98419.91;135275;1281;22565;-62
2023/02/21 16:16:41;;;;;;;;;;;;;;;9.78;100.00;98430.59;135307;1262;24421;-65
2023/02/21 16:19:44;;;;;;;19.20;3.80;;;;;;;9.82;100.00;98434.16;135334;1281;22539;-62
2023/02/21 16:22:47;;;;;;;23.20;4.50;;;;;;;9.77;100.00;98435.39;135317;1280;22536;-64
2023/02/21 16:25:50;;;;;;;23.10;4.30;;;;;;;9.84;100.00;98435.80;135327;1281;22603;-63
2023/02/21 16:28:53;;;;;;;25.70;4.40;;;;;;;9.70;100.00;98435.08;135787;1281;22651;-62
2023/02/21 16:31:56;;;;;;;28.90;4.50;;;;;;;9.64;100.00;98446.48;135289;1281;22587;-62
2023/02/21 16:34:58;;;;;;;23.00;4.00;;;;;;;9.53;100.00;98449.92;135315;1281;22550;-65
2023/02/21 16:38:01;;;;;;;23.40;4.00;;;;;;;9.54;100.00;98451.48;135321;1281;25358;-64
2023/02/21 16:41:03;;;;;;;22.60;4.10;;;;;;;9.58;100.00;98453.81;135301;1281;22567;-62
2023/02/21 16:44:06;;;;;;;24.40;4.10;;;;;;;9.49;100.00;98462.27;135317;1281;22533;-64